Time;durP1;ratioP1;P1;durP2;ratioP2;P2;SDS_P1;SDS_P2;PMS_P1;PMS_P2;Temp;Humidity;BMP_temperature;BMP_pressure;BME280_temperature;BME280_humidity;BME280_pressure;Samples;Min_cycle;Max_cycle;Signal;HPM_P1;HPM_P2
2021/04/22 00:00:00;;;;;;;22.63;9.95;;;2.50;99.90;;;;;;5049970;28;20186;-71
2021/04/22 00:02:27;;;;;;;40.13;9.73;;;2.60;99.90;;;;;;5049625;28;20063;-71
2021/04/22 00:04:53;;;;;;;21.17;8.55;;;2.50;99.90;;;;;;5049701;28;20037;-71
2021/04/22 00:07:19;;;;;;;26.17;10.27;;;2.50;99.90;;;;;;5049202;28;20052;-71
2021/04/22 00:09:48;;;;;;;23.67;8.13;;;2.40;99.90;;;;;;5066285;28;20047;-71
2021/04/22 00:12:14;;;;;;;21.67;8.75;;;2.30;99.90;;;;;;5068099;28;20676;-72
2021/04/22 00:14:40;;;;;;;23.23;8.55;;;2.30;99.90;;;;;;5066853;28;20059;-71
2021/04/22 00:17:08;;;;;;;25.85;9.63;;;2.30;99.90;;;;;;5049236;28;20665;-70
2021/04/22 00:19:36;;;;;;;25.90;8.32;;;2.30;99.90;;;;;;5060007;28;20083;-69
2021/04/22 00:22:03;;;;;;;20.33;8.63;;;2.30;99.90;;;;;;5054134;28;20044;-71
2021/04/22 00:24:29;;;;;;;35.30;9.45;;;2.30;99.90;;;;;;5070487;28;20044;-71
2021/04/22 00:26:56;;;;;;;24.52;9.10;;;2.30;99.90;;;;;;5086815;28;20052;-71
2021/04/22 00:29:22;;;;;;;28.27;8.95;;;2.40;99.90;;;;;;5076609;28;20504;-71
2021/04/22 00:31:48;;;;;;;23.02;9.38;;;2.30;99.90;;;;;;5059415;28;20082;-70
2021/04/22 00:34:14;;;;;;;20.80;8.20;;;2.40;99.90;;;;;;5078194;28;20040;-71
2021/04/22 00:36:41;;;;;;;32.03;9.13;;;2.30;99.90;;;;;;5076187;28;20266;-71
2021/04/22 00:39:07;;;;;;;16.00;8.80;;;2.30;99.90;;;;;;5088163;28;20488;-71
2021/04/22 00:41:34;;;;;;;22.15;8.30;;;2.40;99.90;;;;;;5086447;28;20058;-71
2021/04/22 00:44:00;;;;;;;26.63;9.18;;;2.40;99.90;;;;;;5077563;28;20059;-72
2021/04/22 00:46:27;;;;;;;33.75;10.55;;;2.40;99.90;;;;;;5063531;28;20041;-72
2021/04/22 00:48:54;;;;;;;17.23;8.27;;;2.40;99.90;;;;;;5064723;28;20082;-70
2021/04/22 00:51:21;;;;;;;24.48;8.55;;;2.40;99.90;;;;;;5046680;28;20037;-72
2021/04/22 00:53:49;;;;;;;20.17;8.60;;;2.40;99.90;;;;;;5065973;28;20140;-71
2021/04/22 00:56:17;;;;;;;19.52;9.38;;;2.30;99.90;;;;;;5073190;28;20056;-70
2021/04/22 00:58:43;;;;;;;22.15;9.00;;;2.20;99.90;;;;;;5085345;28;20051;-71
2021/04/22 01:01:10;;;;;;;21.48;10.60;;;2.20;99.90;;;;;;5075638;28;20048;-70
2021/04/22 01:03:36;;;;;;;28.95;9.60;;;2.20;99.90;;;;;;5057167;28;20048;-71
2021/04/22 01:06:04;;;;;;;26.15;9.25;;;2.20;99.90;;;;;;5078137;28;20397;-69
2021/04/22 01:08:31;;;;;;;25.80;9.63;;;2.10;99.90;;;;;;5047605;28;20048;-71
2021/04/22 01:10:58;;;;;;;33.13;9.23;;;2.10;99.90;;;;;;5051146;28;20051;-71
2021/04/22 01:13:24;;;;;;;35.35;10.02;;;2.00;99.90;;;;;;5072333;28;20059;-71
2021/04/22 01:15:51;;;;;;;27.13;8.70;;;2.00;99.90;;;;;;5065901;28;20151;-70
2021/04/22 01:18:17;;;;;;;22.35;8.00;;;2.10;99.90;;;;;;5061766;28;20085;-70
2021/04/22 01:20:47;;;;;;;23.17;8.43;;;2.20;99.90;;;;;;5060708;28;20052;-71
2021/04/22 01:23:14;;;;;;;24.13;9.73;;;2.20;99.90;;;;;;5078120;28;20139;-70
2021/04/22 01:25:47;;;;;;;32.55;9.25;;;2.20;99.90;;;;;;5065879;28;20056;-71
2021/04/22 01:28:15;;;;;;;26.40;8.85;;;2.20;99.90;;;;;;5049300;28;20139;-70
2021/04/22 01:30:47;;;;;;;28.58;8.82;;;2.10;99.90;;;;;;5064626;28;20048;-70
2021/04/22 01:33:15;;;;;;;26.20;9.57;;;2.20;99.90;;;;;;5069644;28;20043;-70
2021/04/22 01:35:47;;;;;;;24.65;9.45;;;2.20;99.90;;;;;;5085415;28;20048;-71
2021/04/22 01:38:13;;;;;;;27.88;9.23;;;2.40;99.90;;;;;;5077800;28;20041;-70
2021/04/22 01:40:40;;;;;;;28.58;8.45;;;2.30;99.90;;;;;;5064306;28;20044;-70
2021/04/22 01:43:07;;;;;;;19.02;9.32;;;2.30;99.90;;;;;;5066282;28;20059;-71
2021/04/22 01:45:34;;;;;;;26.25;9.07;;;2.30;99.90;;;;;;5066360;28;20554;-70
2021/04/22 01:48:00;;;;;;;28.75;9.88;;;2.20;99.90;;;;;;5047153;28;20071;-71
2021/04/22 01:50:30;;;;;;;37.83;10.05;;;2.10;99.90;;;;;;5092893;28;20526;-72
2021/04/22 01:52:57;;;;;;;30.27;9.20;;;2.00;99.90;;;;;;5050864;28;20049;-71
2021/04/22 01:55:38;;;;;;;29.27;8.98;;;2.00;99.90;;;;;;5047137;28;20670;-71
2021/04/22 01:58:07;;;;;;;34.03;9.35;;;2.00;99.90;;;;;;5065676;28;20045;-71
2021/04/22 02:00:39;;;;;;;22.25;8.80;;;1.90;99.90;;;;;;5063906;28;20438;-71
2021/04/22 02:03:07;;;;;;;30.13;9.95;;;2.00;99.90;;;;;;5066307;28;20572;-70
2021/04/22 02:05:34;;;;;;;28.73;10.23;;;2.00;99.90;;;;;;5065073;28;20041;-71
2021/04/22 02:08:01;;;;;;;21.95;9.90;;;1.90;99.90;;;;;;5066294;28;20060;-72
2021/04/22 02:10:28;;;;;;;23.45;9.55;;;2.00;99.90;;;;;;5062785;28;20063;-71
2021/04/22 02:12:54;;;;;;;30.63;10.20;;;1.90;99.90;;;;;;5065104;28;20056;-70
2021/04/22 02:15:24;;;;;;;20.60;9.05;;;1.90;99.90;;;;;;5044622;28;20497;-71
2021/04/22 02:17:51;;;;;;;23.55;10.32;;;1.90;99.90;;;;;;5064697;28;20044;-71
2021/04/22 02:20:17;;;;;;;24.73;9.55;;;2.00;99.90;;;;;;5059676;28;20052;-71
2021/04/22 02:22:45;;;;;;;26.20;9.35;;;2.00;99.90;;;;;;5076739;28;20130;-71
2021/04/22 02:25:15;;;;;;;27.60;9.18;;;2.00;99.90;;;;;;5083801;28;20519;-71
2021/04/22 02:27:41;;;;;;;18.27;8.55;;;2.10;99.90;;;;;;5085244;28;20370;-71
2021/04/22 02:30:15;;;;;;;28.00;9.95;;;2.10;99.90;;;;;;5085687;28;20474;-70
2021/04/22 02:32:42;;;;;;;24.27;9.25;;;2.10;99.90;;;;;;5068793;28;20049;-70
2021/04/22 02:35:10;;;;;;;29.95;10.57;;;2.10;99.90;;;;;;5044349;28;20291;-71
2021/04/22 02:37:37;;;;;;;30.65;8.63;;;2.10;99.90;;;;;;5027833;28;20049;-71
2021/04/22 02:40:09;;;;;;;20.40;9.02;;;2.10;99.90;;;;;;5046267;28;20130;-71
2021/04/22 02:42:36;;;;;;;20.35;9.80;;;2.20;99.90;;;;;;5010512;28;20072;-71
2021/04/22 02:45:07;;;;;;;28.70;10.57;;;2.20;99.90;;;;;;5062793;28;20579;-70
2021/04/22 02:47:34;;;;;;;27.27;9.98;;;2.10;99.90;;;;;;5044063;28;20421;-70
2021/04/22 02:50:01;;;;;;;25.55;10.80;;;2.10;99.90;;;;;;5069423;28;20496;-71
2021/04/22 02:52:27;;;;;;;41.20;11.73;;;2.10;99.90;;;;;;5073726;28;20048;-71
2021/04/22 02:54:53;;;;;;;23.15;8.73;;;2.10;99.90;;;;;;5086423;28;20627;-71
2021/04/22 02:57:19;;;;;;;19.60;9.98;;;2.20;99.90;;;;;;5084342;28;20067;-70
2021/04/22 02:59:45;;;;;;;27.77;9.30;;;2.30;99.90;;;;;;5081742;28;20057;-70
2021/04/22 03:02:12;;;;;;;25.15;10.63;;;2.40;99.90;;;;;;5063746;28;20093;-70
2021/04/22 03:04:38;;;;;;;27.98;10.38;;;2.40;99.90;;;;;;5063346;28;20191;-70
2021/04/22 03:07:04;;;;;;;21.00;9.65;;;2.40;99.90;;;;;;5064207;28;20059;-73
2021/04/22 03:09:31;;;;;;;20.77;9.80;;;2.50;99.90;;;;;;5066904;28;20071;-71
2021/04/22 03:11:57;;;;;;;23.13;10.40;;;2.50;99.90;;;;;;5067784;28;20102;-72
2021/04/22 03:14:23;;;;;;;30.52;9.98;;;2.60;99.90;;;;;;5051660;28;20049;-71
2021/04/22 03:16:50;;;;;;;19.30;10.00;;;2.60;99.90;;;;;;5047390;28;20505;-71
2021/04/22 03:19:16;;;;;;;28.50;9.98;;;2.60;99.90;;;;;;5041741;28;20404;-70
2021/04/22 03:21:42;;;;;;;20.30;10.13;;;2.60;99.90;;;;;;5068911;28;20045;-70
2021/04/22 03:24:09;;;;;;;26.30;8.85;;;2.50;99.90;;;;;;5087121;28;20079;-71
2021/04/22 03:26:36;;;;;;;28.52;10.48;;;2.60;99.90;;;;;;5087699;28;20048;-71
2021/04/22 03:29:03;;;;;;;26.17;10.73;;;2.60;99.90;;;;;;5062578;28;20051;-71
2021/04/22 03:31:30;;;;;;;23.45;9.85;;;2.70;99.90;;;;;;5067655;28;20051;-71
2021/04/22 03:33:56;;;;;;;21.95;9.75;;;2.80;99.90;;;;;;5078062;28;20527;-71
2021/04/22 03:36:22;;;;;;;24.75;10.20;;;2.70;99.90;;;;;;5077839;28;20417;-71
2021/04/22 03:38:49;;;;;;;29.45;12.02;;;2.70;99.90;;;;;;5065617;28;20056;-70
2021/04/22 03:41:15;;;;;;;26.45;10.52;;;2.70;99.90;;;;;;5049963;28;20041;-71
2021/04/22 03:43:42;;;;;;;22.30;10.05;;;2.70;99.90;;;;;;5074873;28;20063;-71
2021/04/22 03:46:08;;;;;;;18.10;10.88;;;2.70;99.90;;;;;;5065821;28;20649;-71
2021/04/22 03:48:34;;;;;;;24.85;11.07;;;2.80;99.90;;;;;;5066254;28;20053;-71
2021/04/22 03:51:01;;;;;;;30.50;9.98;;;2.80;99.90;;;;;;5065950;28;20040;-70
2021/04/22 03:53:27;;;;;;;23.00;9.48;;;2.80;99.90;;;;;;5042078;28;20124;-71
2021/04/22 03:55:53;;;;;;;21.85;9.93;;;2.70;99.90;;;;;;5066424;28;20045;-69
2021/04/22 03:58:19;;;;;;;27.40;11.65;;;2.60;99.90;;;;;;5066697;28;20153;-71
2021/04/22 04:00:46;;;;;;;21.63;11.77;;;2.60;99.90;;;;;;5068209;28;20037;-71
2021/04/22 04:03:12;;;;;;;35.17;9.82;;;2.70;99.90;;;;;;5051495;28;20075;-69
2021/04/22 04:05:38;;;;;;;29.30;10.85;;;2.80;99.90;;;;;;5068575;28;20055;-71
2021/04/22 04:08:05;;;;;;;29.90;12.07;;;2.90;99.90;;;;;;5065877;28;20130;-70
2021/04/22 04:10:32;;;;;;;27.65;10.70;;;2.90;99.90;;;;;;5052692;28;20044;-70
2021/04/22 04:12:58;;;;;;;31.42;10.63;;;2.90;99.90;;;;;;5071383;28;20063;-71
2021/04/22 04:15:24;;;;;;;21.80;9.80;;;2.90;99.90;;;;;;5066331;28;20175;-70
2021/04/22 04:17:51;;;;;;;25.13;11.95;;;2.90;99.90;;;;;;5049577;28;20046;-71
2021/04/22 04:20:17;;;;;;;26.92;11.40;;;3.00;99.90;;;;;;5061256;28;20496;-71
2021/04/22 04:22:44;;;;;;;23.92;11.10;;;3.00;99.90;;;;;;5046920;28;20089;-70
2021/04/22 04:25:11;;;;;;;29.05;12.50;;;3.00;99.90;;;;;;5044672;28;20550;-71
2021/04/22 04:27:37;;;;;;;25.13;11.23;;;3.00;99.90;;;;;;5047897;28;20049;-71
2021/04/22 04:30:06;;;;;;;30.35;12.43;;;3.00;99.90;;;;;;5068112;28;20150;-71
2021/04/22 04:32:36;;;;;;;21.95;12.77;;;3.00;99.90;;;;;;5066344;28;20090;-71
2021/04/22 04:35:03;;;;;;;33.28;11.90;;;3.00;99.90;;;;;;5085570;28;20052;-70
2021/04/22 04:37:29;;;;;;;23.40;11.93;;;3.00;99.90;;;;;;5087407;28;20048;-72
2021/04/22 04:39:55;;;;;;;37.53;14.65;;;3.00;99.90;;;;;;5085286;28;20052;-72
2021/04/22 04:42:22;;;;;;;35.63;14.02;;;2.90;99.90;;;;;;5065175;28;20048;-71
2021/04/22 04:44:48;;;;;;;31.90;13.50;;;3.00;99.90;;;;;;5065205;28;20499;-72
2021/04/22 04:47:14;;;;;;;30.02;12.43;;;3.00;99.90;;;;;;5065354;28;20052;-71
2021/04/22 04:49:40;;;;;;;19.95;12.15;;;3.00;99.90;;;;;;5047266;28;20044;-71
2021/04/22 04:52:07;;;;;;;23.80;12.70;;;3.10;99.90;;;;;;5067099;28;20044;-71
2021/04/22 04:54:33;;;;;;;33.80;13.30;;;3.20;99.90;;;;;;5072270;28;20043;-71
2021/04/22 04:56:59;;;;;;;25.15;13.57;;;3.30;99.90;;;;;;5063506;28;20048;-72
2021/04/22 04:59:26;;;;;;;29.77;13.15;;;3.30;99.90;;;;;;5065573;28;20139;-72
2021/04/22 05:01:52;;;;;;;27.45;13.43;;;3.30;99.90;;;;;;5063410;28;20049;-72
2021/04/22 05:04:18;;;;;;;29.55;12.82;;;3.30;99.90;;;;;;5064499;28;20056;-71
2021/04/22 05:06:45;;;;;;;39.65;16.52;;;3.30;99.90;;;;;;5064330;28;20558;-72
2021/04/22 05:09:11;;;;;;;23.17;12.40;;;3.30;99.90;;;;;;5065570;28;20062;-71
2021/04/22 05:11:37;;;;;;;33.47;13.98;;;3.30;99.90;;;;;;5047763;28;20036;-71
2021/04/22 05:14:04;;;;;;;21.17;13.98;;;3.30;99.90;;;;;;5066784;28;20720;-72
2021/04/22 05:16:30;;;;;;;30.27;14.60;;;3.30;99.90;;;;;;5065782;28;20520;-72
2021/04/22 05:18:57;;;;;;;33.47;15.27;;;3.40;99.90;;;;;;5059795;28;20449;-72
2021/04/22 05:21:23;;;;;;;30.17;14.82;;;3.40;99.90;;;;;;5064290;28;20051;-72
2021/04/22 05:23:49;;;;;;;21.63;14.48;;;3.50;99.90;;;;;;5076378;28;20062;-72
2021/04/22 05:26:19;;;;;;;30.50;13.57;;;3.40;99.90;;;;;;5079895;28;20051;-72
2021/04/22 05:28:46;;;;;;;26.73;13.38;;;3.50;99.90;;;;;;5029982;28;20049;-72
2021/04/22 05:31:13;;;;;;;38.72;13.25;;;3.60;99.90;;;;;;5060077;28;20044;-71
2021/04/22 05:33:39;;;;;;;30.10;13.82;;;3.50;99.90;;;;;;5067575;28;20090;-72
2021/04/22 05:36:06;;;;;;;23.65;13.02;;;3.50;99.90;;;;;;5062131;28;20068;-72
2021/04/22 05:38:33;;;;;;;26.45;13.07;;;3.60;99.90;;;;;;5048124;28;20049;-72
2021/04/22 05:41:00;;;;;;;34.65;13.75;;;3.60;99.90;;;;;;5065347;28;20224;-72
2021/04/22 05:43:26;;;;;;;21.05;11.82;;;3.50;99.90;;;;;;5061857;28;20501;-72
2021/04/22 05:45:53;;;;;;;26.27;14.02;;;3.50;99.90;;;;;;5074463;28;20167;-71
2021/04/22 05:48:19;;;;;;;33.25;13.32;;;3.60;99.90;;;;;;5067462;28;20090;-70
2021/04/22 05:50:46;;;;;;;27.33;12.63;;;3.60;99.90;;;;;;5062817;28;20075;-70
2021/04/22 05:53:12;;;;;;;31.92;13.63;;;3.70;99.90;;;;;;5053134;28;20058;-72
2021/04/22 05:55:38;;;;;;;28.02;13.55;;;3.70;99.90;;;;;;5066310;28;20063;-72
2021/04/22 05:58:04;;;;;;;24.63;13.73;;;3.80;99.90;;;;;;5064551;28;20044;-70
2021/04/22 06:00:31;;;;;;;31.63;13.48;;;3.80;99.90;;;;;;5062751;28;20507;-72
2021/04/22 06:02:57;;;;;;;28.48;12.30;;;3.90;99.90;;;;;;5064097;28;20563;-72
2021/04/22 06:05:24;;;;;;;26.05;11.10;;;4.00;99.90;;;;;;5032615;28;20055;-71
2021/04/22 06:07:51;;;;;;;22.88;11.52;;;4.30;99.90;;;;;;5062603;28;20044;-72
2021/04/22 06:10:18;;;;;;;29.63;12.88;;;4.40;99.90;;;;;;5069066;28;20079;-71
2021/04/22 06:12:45;;;;;;;26.67;13.85;;;4.50;99.90;;;;;;5076235;28;20135;-71
2021/04/22 06:15:12;;;;;;;26.67;12.70;;;4.50;99.90;;;;;;5050970;28;20044;-71
2021/04/22 06:17:39;;;;;;;24.92;12.73;;;4.70;99.90;;;;;;5065405;28;20059;-72
2021/04/22 06:20:26;;;;;;;20.10;12.45;;;4.70;99.90;;;;;;5061311;28;20045;-70
2021/04/22 06:22:52;;;;;;;23.65;14.13;;;4.90;99.90;;;;;;5047110;28;20048;-71
2021/04/22 06:25:20;;;;;;;28.13;14.23;;;4.90;99.90;;;;;;5064155;28;20048;-71
2021/04/22 06:27:47;;;;;;;20.15;13.07;;;4.90;99.90;;;;;;5065664;28;20135;-72
2021/04/22 06:30:14;;;;;;;29.38;14.30;;;4.90;99.90;;;;;;5048110;28;20059;-71
2021/04/22 06:32:40;;;;;;;33.20;15.05;;;5.00;99.90;;;;;;5066822;28;20418;-72
2021/04/22 06:35:08;;;;;;;23.48;12.63;;;4.90;99.90;;;;;;5078364;28;20512;-71
2021/04/22 06:37:39;;;;;;;26.15;13.05;;;5.00;99.90;;;;;;5063405;28;20056;-72
2021/04/22 06:40:12;;;;;;;18.38;11.35;;;4.90;99.90;;;;;;5068543;28;20044;-71
2021/04/22 06:42:40;;;;;;;27.95;13.57;;;5.00;99.90;;;;;;5042411;28;20048;-72
2021/04/22 06:45:09;;;;;;;23.65;13.35;;;5.00;99.90;;;;;;5068844;28;20076;-70
2021/04/22 06:47:36;;;;;;;25.33;13.50;;;5.00;99.90;;;;;;5067424;28;20087;-71
2021/04/22 06:50:07;;;;;;;26.67;13.98;;;5.00;99.90;;;;;;5063784;28;20059;-71
2021/04/22 06:52:34;;;;;;;18.20;13.55;;;5.10;99.90;;;;;;5067056;28;20051;-71
2021/04/22 06:55:02;;;;;;;23.85;12.70;;;5.10;99.90;;;;;;5068287;28;20052;-71
2021/04/22 06:57:29;;;;;;;20.05;13.10;;;5.00;99.90;;;;;;5073897;28;20052;-71
2021/04/22 06:59:55;;;;;;;16.88;11.90;;;5.00;99.90;;;;;;5068904;28;20135;-71
2021/04/22 07:02:22;;;;;;;20.55;12.18;;;5.00;99.90;;;;;;5049716;28;20066;-71
2021/04/22 07:04:48;;;;;;;21.17;12.43;;;5.00;99.90;;;;;;5049926;28;20044;-72
2021/04/22 07:07:14;;;;;;;26.88;12.52;;;5.00;99.90;;;;;;5049431;28;20044;-71
2021/04/22 07:09:41;;;;;;;28.45;13.52;;;5.00;99.90;;;;;;5068948;28;20055;-71
2021/04/22 07:12:07;;;;;;;23.05;13.60;;;4.90;99.90;;;;;;5065609;28;20045;-71
2021/04/22 07:14:34;;;;;;;24.63;14.23;;;5.00;99.90;;;;;;5069318;28;20048;-71
2021/04/22 07:17:00;;;;;;;36.60;16.05;;;4.90;99.90;;;;;;5067006;28;20048;-71
2021/04/22 07:19:27;;;;;;;27.42;15.35;;;5.10;99.90;;;;;;5066719;28;20121;-72
2021/04/22 07:21:57;;;;;;;24.95;14.80;;;5.20;99.90;;;;;;5066375;28;20049;-72
2021/04/22 07:24:23;;;;;;;24.17;12.98;;;5.20;99.90;;;;;;5066246;28;20493;-71
2021/04/22 07:26:50;;;;;;;16.42;12.63;;;5.30;99.90;;;;;;5087707;28;20062;-71
2021/04/22 07:29:16;;;;;;;23.55;12.88;;;5.70;99.90;;;;;;5073011;28;20056;-71
2021/04/22 07:31:44;;;;;;;26.13;14.10;;;5.90;99.90;;;;;;5074721;28;20048;-72
2021/04/22 07:34:10;;;;;;;28.77;14.23;;;5.80;99.90;;;;;;5044934;28;20039;-72
2021/04/22 07:36:37;;;;;;;29.70;13.25;;;6.10;99.90;;;;;;5058443;28;20509;-73
2021/04/22 07:39:04;;;;;;;21.17;13.63;;;6.60;99.90;;;;;;5069436;28;20052;-73
2021/04/22 07:41:30;;;;;;;20.33;14.32;;;7.00;99.90;;;;;;5067157;28;20032;-73
2021/04/22 07:43:56;;;;;;;18.85;14.10;;;7.20;99.90;;;;;;5068129;28;20060;-73
2021/04/22 07:46:23;;;;;;;21.75;14.68;;;7.20;99.90;;;;;;5066074;28;20055;-72
2021/04/22 07:48:51;;;;;;;20.95;13.32;;;7.20;99.90;;;;;;5050177;28;20139;-73
2021/04/22 07:51:17;;;;;;;24.45;13.18;;;7.40;99.90;;;;;;5047530;28;20044;-71
2021/04/22 07:53:43;;;;;;;19.65;14.52;;;7.40;99.90;;;;;;5065840;28;20417;-72
2021/04/22 07:56:09;;;;;;;18.77;14.10;;;7.30;99.90;;;;;;5065544;28;20044;-72
2021/04/22 07:58:36;;;;;;;17.35;12.70;;;7.40;99.90;;;;;;5067219;28;20047;-72
2021/04/22 08:01:02;;;;;;;17.90;13.43;;;7.10;99.90;;;;;;5066530;28;20044;-72
2021/04/22 08:03:29;;;;;;;21.85;13.73;;;6.80;99.90;;;;;;5081305;28;20068;-72
2021/04/22 08:05:56;;;;;;;24.13;14.93;;;6.80;99.90;;;;;;5066764;28;20137;-72
2021/04/22 08:08:24;;;;;;;24.65;13.45;;;6.90;99.90;;;;;;5066781;28;20139;-72
2021/04/22 08:10:55;;;;;;;23.73;13.88;;;7.50;99.90;;;;;;5066093;28;20053;-72
2021/04/22 08:13:22;;;;;;;20.25;14.27;;;8.20;99.90;;;;;;5067968;28;20052;-72
2021/04/22 08:15:53;;;;;;;19.00;13.73;;;8.60;99.90;;;;;;5070377;28;20110;-72
2021/04/22 08:18:27;;;;;;;22.85;14.00;;;8.70;99.90;;;;;;5065381;28;20044;-72
2021/04/22 08:20:56;;;;;;;21.07;13.17;;;8.40;99.90;;;;;;5049420;28;20052;-72
2021/04/22 08:23:27;;;;;;;20.38;13.70;;;8.10;99.90;;;;;;5066118;28;20905;-72
2021/04/22 08:25:57;;;;;;;24.60;14.23;;;7.60;99.90;;;;;;5064825;28;20059;-71
2021/04/22 08:28:25;;;;;;;23.95;14.23;;;7.30;99.90;;;;;;5071212;28;20695;-72
2021/04/22 08:30:55;;;;;;;22.20;14.30;;;7.10;99.90;;;;;;5070198;28;20052;-72
2021/04/22 08:33:25;;;;;;;19.65;14.63;;;6.90;99.90;;;;;;5072486;28;20047;-71
2021/04/22 08:35:52;;;;;;;24.15;13.60;;;6.80;99.90;;;;;;5067628;28;20052;-72
2021/04/22 08:38:20;;;;;;;19.17;12.65;;;6.70;99.90;;;;;;5067355;28;20434;-72
2021/04/22 08:40:47;;;;;;;26.00;13.80;;;6.70;99.90;;;;;;5049451;28;20489;-71
2021/04/22 08:43:13;;;;;;;28.38;13.52;;;6.80;99.90;;;;;;5066130;28;20079;-71
2021/04/22 08:45:40;;;;;;;26.13;14.52;;;6.80;99.90;;;;;;5066362;28;20049;-71
2021/04/22 08:48:07;;;;;;;17.77;14.93;;;6.70;99.90;;;;;;5064481;28;20040;-71
2021/04/22 08:50:35;;;;;;;28.33;15.18;;;6.90;99.90;;;;;;5071218;28;20443;-72
2021/04/22 08:53:05;;;;;;;19.85;15.40;;;7.00;99.90;;;;;;5066153;28;20041;-71
2021/04/22 08:55:33;;;;;;;24.70;13.85;;;7.40;99.90;;;;;;5064858;28;20036;-74
2021/04/22 08:58:02;;;;;;;20.20;13.80;;;7.90;99.90;;;;;;5059093;28;20550;-70
2021/04/22 09:00:33;;;;;;;20.50;13.40;;;8.10;99.90;;;;;;5047523;28;20044;-70
2021/04/22 09:02:59;;;;;;;26.70;16.15;;;7.70;99.90;;;;;;5066312;28;20148;-71
2021/04/22 09:05:26;;;;;;;18.77;13.75;;;7.30;99.90;;;;;;5067192;28;20060;-71
2021/04/22 09:07:52;;;;;;;30.52;15.38;;;7.20;99.90;;;;;;5064131;28;20056;-72
2021/04/22 09:10:24;;;;;;;21.60;14.98;;;7.30;99.90;;;;;;5067057;28;20577;-73
2021/04/22 09:13:11;;;;;;;24.77;15.43;;;7.70;99.90;;;;;;5049417;28;20113;-72
2021/04/22 09:15:41;;;;;;;18.52;14.35;;;8.40;99.90;;;;;;5065204;28;20053;-72
2021/04/22 09:18:17;;;;;;;19.63;13.80;;;8.40;99.90;;;;;;5065142;28;20048;-72
2021/04/22 09:20:50;;;;;;;17.05;13.82;;;8.20;99.90;;;;;;5063619;28;20070;-72
2021/04/22 09:23:24;;;;;;;20.77;14.93;;;8.20;99.90;;;;;;5065642;28;20052;-72
2021/04/22 09:25:56;;;;;;;18.90;13.18;;;8.10;99.90;;;;;;5074210;28;20093;-72
2021/04/22 09:28:42;;;;;;;20.63;14.63;;;8.20;99.90;;;;;;5080749;28;20445;-72
2021/04/22 09:31:10;;;;;;;19.63;14.65;;;8.10;99.90;;;;;;5084745;28;20044;-72
2021/04/22 09:33:39;;;;;;;20.50;13.82;;;8.40;99.90;;;;;;5069441;28;20128;-72
2021/04/22 09:36:16;;;;;;;16.10;13.20;;;8.90;99.90;;;;;;5066151;28;20090;-72
2021/04/22 09:38:54;;;;;;;17.52;13.98;;;9.20;99.90;;;;;;5066758;28;20131;-72
2021/04/22 09:41:24;;;;;;;19.80;13.68;;;9.30;99.90;;;;;;5064763;28;20546;-72
2021/04/22 09:44:04;;;;;;;20.42;14.25;;;9.20;99.90;;;;;;5065810;28;20481;-72
2021/04/22 09:46:30;;;;;;;24.48;14.50;;;8.90;99.90;;;;;;5064239;28;20091;-72
2021/04/22 09:48:59;;;;;;;18.90;14.75;;;9.00;99.90;;;;;;5065489;28;20365;-72
2021/04/22 09:51:32;;;;;;;21.27;13.30;;;9.40;99.90;;;;;;5064369;28;20556;-73
2021/04/22 09:54:06;;;;;;;20.88;13.68;;;9.60;99.90;;;;;;5065610;28;20055;-72
2021/04/22 09:56:50;;;;;;;20.98;13.18;;;9.40;99.90;;;;;;5072163;28;20049;-72
2021/04/22 09:59:22;;;;;;;19.63;15.32;;;8.90;99.90;;;;;;5076115;28;20055;-72
2021/04/22 10:02:02;;;;;;;22.05;15.20;;;8.60;99.90;;;;;;5064810;28;20044;-72
2021/04/22 10:04:34;;;;;;;19.55;14.68;;;8.90;99.90;;;;;;5065617;28;20059;-71
2021/04/22 10:07:00;;;;;;;18.27;13.50;;;9.40;99.90;;;;;;5064496;28;20055;-71
2021/04/22 10:09:34;;;;;;;21.67;13.60;;;9.90;99.90;;;;;;5062974;28;20044;-71
2021/04/22 10:12:02;;;;;;;17.00;14.02;;;10.00;99.90;;;;;;5065088;28;20473;-71
2021/04/22 10:14:33;;;;;;;18.30;12.85;;;9.30;99.90;;;;;;5069663;28;20055;-71
2021/04/22 10:17:11;;;;;;;19.40;14.23;;;9.20;99.90;;;;;;5031302;28;20055;-72
2021/04/22 10:19:38;;;;;;;20.42;14.60;;;8.90;99.90;;;;;;5065728;28;20079;-73
2021/04/22 10:22:04;;;;;;;18.17;13.68;;;8.90;99.90;;;;;;5069913;28;20052;-72
2021/04/22 10:24:30;;;;;;;15.77;14.20;;;9.10;99.90;;;;;;5070224;28;20048;-72
2021/04/22 10:26:59;;;;;;;15.90;13.80;;;9.50;99.90;;;;;;5047577;28;20240;-73
2021/04/22 10:29:25;;;;;;;18.80;13.50;;;9.70;99.90;;;;;;5069659;28;20055;-72
2021/04/22 10:31:53;;;;;;;34.00;15.68;;;9.60;99.90;;;;;;5068476;28;20108;-73
2021/04/22 10:34:21;;;;;;;25.02;14.98;;;9.40;99.90;;;;;;5069602;28;20056;-73
2021/04/22 10:36:47;;;;;;;26.08;16.42;;;9.30;99.90;;;;;;5069992;28;20053;-71
2021/04/22 10:39:15;;;;;;;22.63;16.67;;;9.40;99.90;;;;;;5051579;28;20044;-71
2021/04/22 10:41:43;;;;;;;16.70;15.20;;;10.00;99.90;;;;;;5068269;28;20091;-71
2021/04/22 10:44:11;;;;;;;16.02;14.43;;;9.90;99.90;;;;;;5069069;28;20049;-72
2021/04/22 10:46:40;;;;;;;16.80;14.73;;;10.00;99.90;;;;;;5068765;28;20059;-72
2021/04/22 10:49:07;;;;;;;21.20;16.23;;;9.80;99.90;;;;;;5046870;28;20052;-71
2021/04/22 10:51:35;;;;;;;17.17;15.43;;;9.80;99.90;;;;;;5067693;28;20037;-71
2021/04/22 10:54:04;;;;;;;19.92;15.75;;;10.00;99.90;;;;;;5052096;28;20045;-72
2021/04/22 10:56:30;;;;;;;23.67;14.48;;;10.30;99.90;;;;;;5076525;28;20447;-71
2021/04/22 10:58:57;;;;;;;19.67;14.57;;;10.80;99.90;;;;;;5069067;28;20052;-71
2021/04/22 11:01:42;;;;;;;22.13;14.77;;;10.60;99.90;;;;;;5050088;28;20044;-72
2021/04/22 11:04:10;;;;;;;19.13;15.35;;;10.70;99.90;;;;;;5051271;28;20132;-72
2021/04/22 11:06:40;;;;;;;18.27;16.27;;;10.50;99.90;;;;;;5067431;28;20505;-73
2021/04/22 11:09:16;;;;;;;19.50;15.15;;;10.50;99.90;;;;;;5068191;28;20059;-71
2021/04/22 11:12:00;;;;;;;17.23;14.88;;;10.90;99.90;;;;;;5050511;28;20079;-72
2021/04/22 11:14:35;;;;;;;16.83;14.43;;;11.20;99.90;;;;;;5068176;28;20052;-72
2021/04/22 11:17:04;;;;;;;18.02;15.07;;;11.20;99.90;;;;;;5034588;28;20143;-72
2021/04/22 11:19:40;;;;;;;24.48;15.00;;;11.30;99.90;;;;;;5069273;28;20049;-72
2021/04/22 11:22:22;;;;;;;15.73;14.25;;;11.10;99.90;;;;;;5067433;28;20048;-72
2021/04/22 11:25:00;;;;;;;18.77;15.02;;;10.80;99.90;;;;;;5053899;28;20044;-72
2021/04/22 11:27:33;;;;;;;18.23;14.70;;;10.80;99.90;;;;;;5074861;28;20144;-72
2021/04/22 11:30:05;;;;;;;17.27;15.45;;;10.70;99.90;;;;;;5049579;28;20059;-72
2021/04/22 11:32:34;;;;;;;20.52;15.75;;;10.80;99.90;;;;;;5050076;28;20139;-72
2021/04/22 11:35:10;;;;;;;17.48;15.77;;;11.00;99.90;;;;;;5081478;28;20053;-73
2021/04/22 11:37:46;;;;;;;21.80;16.00;;;11.10;99.90;;;;;;5050925;28;20412;-72
2021/04/22 11:40:23;;;;;;;16.25;14.65;;;10.50;99.90;;;;;;5067809;28;20049;-72
2021/04/22 11:42:51;;;;;;;17.48;15.70;;;10.90;99.90;;;;;;5049813;28;20106;-72
2021/04/22 11:45:29;;;;;;;27.02;16.45;;;10.70;99.90;;;;;;5067695;28;20048;-73
2021/04/22 11:48:02;;;;;;;19.92;17.25;;;10.80;99.90;;;;;;5050681;28;20044;-72
2021/04/22 11:50:59;;;;;;;20.08;16.83;;;11.10;99.90;;;;;;5062926;28;20044;-72
2021/04/22 11:53:39;;;;;;;18.40;15.43;;;11.40;99.90;;;;;;5067415;28;20056;-71
2021/04/22 11:56:08;;;;;;;19.60;14.63;;;11.80;99.90;;;;;;5074095;28;20132;-73
2021/04/22 11:58:34;;;;;;;23.58;15.43;;;11.60;99.90;;;;;;5071289;28;20071;-72
2021/04/22 12:01:05;;;;;;;17.75;15.65;;;11.50;99.90;;;;;;5066201;28;20057;-72
2021/04/22 12:03:33;;;;;;;19.60;15.63;;;11.10;99.90;;;;;;5049591;28;20051;-72
2021/04/22 12:06:05;;;;;;;19.67;17.48;;;10.90;99.90;;;;;;5048924;28;20059;-74
2021/04/22 12:08:34;;;;;;;18.70;16.70;;;10.90;99.90;;;;;;5057313;28;20048;-72
2021/04/22 12:11:02;;;;;;;22.50;17.73;;;11.20;99.90;;;;;;5059966;28;20092;-72
2021/04/22 12:13:30;;;;;;;16.63;15.13;;;11.50;99.90;;;;;;5066371;28;20044;-73
2021/04/22 12:15:57;;;;;;;21.88;15.73;;;11.40;99.90;;;;;;5067428;28;20033;-72
2021/04/22 12:18:30;;;;;;;26.83;16.40;;;10.90;99.90;;;;;;5064719;28;20523;-72
2021/04/22 12:21:14;;;;;;;17.10;15.50;;;11.00;99.90;;;;;;5062717;28;20048;-72
2021/04/22 12:23:49;;;;;;;18.58;16.17;;;10.90;99.90;;;;;;5048112;28;20454;-73
2021/04/22 12:26:16;;;;;;;22.30;16.77;;;10.80;99.90;;;;;;5071874;28;20296;-73
2021/04/22 12:28:58;;;;;;;20.75;17.27;;;10.80;99.90;;;;;;5066721;28;20058;-71
2021/04/22 12:31:29;;;;;;;17.42;15.68;;;10.70;99.90;;;;;;5066368;28;20044;-73
2021/04/22 12:33:58;;;;;;;22.63;16.88;;;10.80;99.90;;;;;;5102926;27;20666;-73
2021/04/22 12:36:24;;;;;;;20.80;16.27;;;11.00;99.90;;;;;;5047756;28;20059;-72
2021/04/22 12:38:50;;;;;;;18.80;16.63;;;11.00;99.90;;;;;;5067773;28;20067;-72
2021/04/22 12:41:20;;;;;;;24.13;17.13;;;11.10;99.90;;;;;;5048311;28;20044;-72
2021/04/22 12:43:49;;;;;;;21.63;17.10;;;11.60;99.90;;;;;;5066363;28;20056;-72